createdAt,value
2023-05-09T00:00:12.116Z,47.0
2023-05-09T00:01:14.605Z,47.0
2023-05-09T00:02:27.762Z,47.0
2023-05-09T00:03:41.796Z,47.0
2023-05-09T00:04:45.229Z,47.0
2023-05-09T00:05:57.803Z,47.0
2023-05-09T00:07:11.149Z,47.0
2023-05-09T00:08:13.696Z,47.0
2023-05-09T00:09:27.107Z,47.0
2023-05-09T00:10:39.532Z,47.1
2023-05-09T00:11:52.637Z,47.1
2023-05-09T00:12:55.132Z,47.1
2023-05-09T00:14:08.659Z,47.1
2023-05-09T00:15:21.126Z,47.1
2023-05-09T00:16:44.284Z,47.1
2023-05-09T00:17:36.994Z,47.1
2023-05-09T00:18:50.157Z,47.1
2023-05-09T00:19:52.751Z,47.1
2023-05-09T00:21:06.136Z,47.1
2023-05-09T00:22:21.113Z,47.1
2023-05-09T00:23:24.630Z,47.1
2023-05-09T00:24:37.012Z,47.1
2023-05-09T00:25:50.153Z,47.1
2023-05-09T00:26:52.632Z,47.1
2023-05-09T00:28:05.629Z,47.0
2023-05-09T00:29:17.992Z,47.1
2023-05-09T00:30:31.169Z,47.1
2023-05-09T00:31:33.753Z,47.1
2023-05-09T00:32:47.216Z,47.1
2023-05-09T00:33:59.703Z,47.1
2023-05-09T00:35:03.140Z,47.1
2023-05-09T00:36:15.599Z,47.1
2023-05-09T00:37:29.138Z,47.1
2023-05-09T00:38:31.619Z,47.1
2023-05-09T00:39:44.663Z,47.1
2023-05-09T00:40:57.033Z,47.1
2023-05-09T00:42:10.169Z,47.1
2023-05-09T00:43:12.660Z,47.1
2023-05-09T00:44:25.677Z,47.2
2023-05-09T00:45:42.689Z,47.1
2023-05-09T00:46:46.127Z,47.2
2023-05-09T00:47:58.543Z,47.2
2023-05-09T00:49:02.151Z,47.2
2023-05-09T00:50:14.555Z,47.2
2023-05-09T00:51:27.623Z,47.2
2023-05-09T00:52:30.126Z,47.1
2023-05-09T00:53:43.172Z,47.2
2023-05-09T00:54:55.557Z,47.2
2023-05-09T00:56:08.639Z,47.1
2023-05-09T00:57:11.109Z,47.2
2023-05-09T00:58:24.252Z,47.2
2023-05-09T00:59:36.660Z,47.3
2023-05-09T01:00:40.169Z,47.3
2023-05-09T01:01:52.558Z,47.2
2023-05-09T01:03:06.179Z,47.3
2023-05-09T01:04:10.155Z,47.3
2023-05-09T01:05:23.261Z,47.3
2023-05-09T01:06:35.722Z,47.3
2023-05-09T01:07:39.128Z,47.3
2023-05-09T01:08:51.518Z,47.3
2023-05-09T01:10:04.687Z,47.3
2023-05-09T01:11:07.157Z,47.3
2023-05-09T01:12:20.175Z,47.3
2023-05-09T01:13:32.649Z,47.3
2023-05-09T01:14:45.649Z,47.2
2023-05-09T01:15:48.238Z,47.2
2023-05-09T01:17:01.671Z,47.3
2023-05-09T01:18:14.188Z,47.3
2023-05-09T01:19:17.680Z,47.3
2023-05-09T01:20:30.040Z,47.3
2023-05-09T01:21:43.191Z,47.3
2023-05-09T01:22:55.555Z,47.3
2023-05-09T01:23:58.658Z,47.3
2023-05-09T01:25:11.120Z,47.3
2023-05-09T01:26:24.168Z,47.4
2023-05-09T01:27:26.701Z,47.3
2023-05-09T01:28:40.219Z,47.4
2023-05-09T01:29:52.618Z,47.3
2023-05-09T01:31:05.692Z,47.4
2023-05-09T01:32:08.335Z,47.3
2023-05-09T01:33:21.694Z,47.3
2023-05-09T01:34:34.074Z,47.4
2023-05-09T01:35:37.179Z,47.4
2023-05-09T01:36:49.534Z,47.3
2023-05-09T01:38:02.677Z,47.3
2023-05-09T01:39:06.688Z,47.4
2023-05-09T01:40:19.701Z,47.3
2023-05-09T01:41:32.064Z,47.3
2023-05-09T01:42:45.165Z,47.3
2023-05-09T01:43:47.688Z,47.3
2023-05-09T01:45:01.178Z,47.3
2023-05-09T01:46:13.623Z,47.4
2023-05-09T01:47:18.649Z,47.4
2023-05-09T01:48:31.129Z,47.4
2023-05-09T01:49:44.164Z,47.4
2023-05-09T01:50:46.670Z,47.4
2023-05-09T01:51:59.688Z,47.4
2023-05-09T01:53:13.740Z,47.4
2023-05-09T01:54:17.185Z,47.3
2023-05-09T01:55:29.646Z,47.4
2023-05-09T01:56:42.654Z,47.4
2023-05-09T01:57:45.318Z,47.4
2023-05-09T01:58:58.736Z,47.4
2023-05-09T02:00:11.147Z,47.4
2023-05-09T02:01:24.213Z,47.4
2023-05-09T02:02:26.908Z,47.4
2023-05-09T02:03:40.167Z,47.4
2023-05-09T02:04:52.787Z,47.4
2023-05-09T02:05:56.204Z,47.4
2023-05-09T02:07:10.255Z,47.4
2023-05-09T02:08:23.679Z,47.4
2023-05-09T02:09:26.147Z,47.4
2023-05-09T02:10:39.192Z,47.4
2023-05-09T02:11:51.564Z,47.4
2023-05-09T02:12:54.695Z,47.4
2023-05-09T02:14:07.160Z,47.4
2023-05-09T02:15:20.170Z,47.4
2023-05-09T02:16:32.602Z,47.4
2023-05-09T02:17:36.250Z,47.4
2023-05-09T02:18:48.760Z,47.4
2023-05-09T02:20:02.362Z,47.4
2023-05-09T02:21:05.253Z,47.4
2023-05-09T02:22:18.690Z,47.4
2023-05-09T02:23:31.081Z,47.4
2023-05-09T02:24:34.206Z,47.4
2023-05-09T02:25:46.657Z,47.5
2023-05-09T02:26:59.726Z,47.4
2023-05-09T02:28:12.098Z,47.4
2023-05-09T02:29:15.212Z,47.4
2023-05-09T02:30:27.715Z,47.4
2023-05-09T02:31:41.296Z,47.4
2023-05-09T02:32:44.084Z,47.4
2023-05-09T02:33:59.156Z,47.4
2023-05-09T02:35:12.065Z,47.4
2023-05-09T02:36:15.702Z,47.4
2023-05-09T02:37:28.108Z,47.4
2023-05-09T02:38:41.702Z,47.4
2023-05-09T02:39:44.181Z,47.4
2023-05-09T02:40:57.202Z,47.4
2023-05-09T02:42:09.611Z,47.5
2023-05-09T02:43:22.710Z,47.4
2023-05-09T02:44:25.204Z,47.4
2023-05-09T02:45:38.676Z,47.4
2023-05-09T02:46:51.101Z,47.4
2023-05-09T02:47:54.798Z,47.4
2023-05-09T02:49:07.302Z,47.4
2023-05-09T02:50:20.719Z,47.4
2023-05-09T02:51:23.209Z,47.4
2023-05-09T02:52:36.188Z,47.4
2023-05-09T02:53:48.619Z,47.4
2023-05-09T02:55:01.708Z,47.4
2023-05-09T02:56:04.213Z,47.4
2023-05-09T02:57:17.667Z,47.4
2023-05-09T02:58:30.070Z,47.4
2023-05-09T02:59:33.226Z,47.4
2023-05-09T03:00:45.630Z,47.4
2023-05-09T03:01:58.693Z,47.4
2023-05-09T03:03:01.259Z,47.5
2023-05-09T03:04:14.690Z,47.4
2023-05-09T03:05:27.108Z,47.4
2023-05-09T03:06:40.231Z,47.4
2023-05-09T03:07:42.780Z,47.4
2023-05-09T03:08:56.188Z,47.5
2023-05-09T03:10:08.588Z,47.4
2023-05-09T03:11:11.684Z,47.5
2023-05-09T03:12:24.109Z,47.4
2023-05-09T03:13:37.222Z,47.4
2023-05-09T03:14:49.641Z,47.5
2023-05-09T03:15:53.251Z,47.4
2023-05-09T03:17:05.776Z,47.4
2023-05-09T03:18:19.180Z,47.4
2023-05-09T03:19:23.223Z,47.4
2023-05-09T03:20:36.213Z,47.4
2023-05-09T03:21:49.001Z,47.5
2023-05-09T03:22:52.222Z,47.5
2023-05-09T03:24:04.829Z,47.5
2023-05-09T03:25:18.354Z,47.5
2023-05-09T03:26:21.021Z,47.5
2023-05-09T03:27:34.350Z,47.5
2023-05-09T03:28:46.938Z,47.4
2023-05-09T03:30:00.242Z,47.5
2023-05-09T03:31:02.849Z,47.4
2023-05-09T03:32:16.198Z,47.4
2023-05-09T03:33:28.619Z,47.5
2023-05-09T03:34:31.719Z,47.5
2023-05-09T03:35:44.118Z,47.5
2023-05-09T03:36:57.230Z,47.5
2023-05-09T03:37:59.722Z,47.5
2023-05-09T03:39:12.725Z,47.4
2023-05-09T03:40:25.151Z,47.4
2023-05-09T03:41:38.218Z,47.5
2023-05-09T03:42:40.704Z,47.4
2023-05-09T03:43:53.729Z,47.4
2023-05-09T03:45:06.145Z,47.5
2023-05-09T03:46:09.318Z,47.5
2023-05-09T03:47:21.718Z,47.4
2023-05-09T03:48:34.734Z,47.5
2023-05-09T03:49:47.151Z,47.4
2023-05-09T03:50:50.733Z,47.4
2023-05-09T03:52:03.416Z,47.4
2023-05-09T03:53:16.719Z,47.4
2023-05-09T03:54:19.286Z,47.4
2023-05-09T03:55:32.735Z,47.4
2023-05-09T03:56:45.134Z,47.4
2023-05-09T03:57:48.214Z,47.4
2023-05-09T03:59:00.590Z,47.4
2023-05-09T04:00:16.724Z,47.4
2023-05-09T04:01:19.244Z,47.4
2023-05-09T04:02:32.371Z,47.4
2023-05-09T04:03:45.036Z,47.4
2023-05-09T04:04:51.683Z,47.4
2023-05-09T04:06:04.179Z,47.4
2023-05-09T04:07:07.244Z,47.4
2023-05-09T04:08:19.762Z,47.4
2023-05-09T04:09:32.751Z,47.4
2023-05-09T04:10:45.726Z,47.4
2023-05-09T04:11:49.244Z,47.4
2023-05-09T04:13:01.703Z,47.4
2023-05-09T04:14:14.721Z,47.4
2023-05-09T04:15:17.293Z,47.5
2023-05-09T04:16:30.729Z,47.5
2023-05-09T04:17:43.138Z,47.6
2023-05-09T04:18:46.786Z,47.6
2023-05-09T04:19:59.204Z,47.6
2023-05-09T04:21:12.255Z,47.7
2023-05-09T04:22:24.812Z,47.7
2023-05-09T04:23:28.248Z,47.7
2023-05-09T04:24:40.647Z,47.8
2023-05-09T04:25:53.812Z,47.8
2023-05-09T04:26:57.724Z,47.8
2023-05-09T04:28:10.773Z,47.8
2023-05-09T04:29:23.223Z,47.8
2023-05-09T04:30:26.718Z,48.0
2023-05-09T04:31:39.167Z,48.0
2023-05-09T04:32:52.264Z,47.9
2023-05-09T04:33:56.074Z,47.7
2023-05-09T04:35:09.241Z,47.5
2023-05-09T04:36:21.558Z,47.3
2023-05-09T04:37:24.763Z,47.0
2023-05-09T04:38:37.102Z,46.8
2023-05-09T04:39:50.267Z,46.6
2023-05-09T04:41:02.545Z,46.4
2023-05-09T04:42:05.744Z,46.2
2023-05-09T04:43:17.942Z,46.1
2023-05-09T04:44:30.772Z,45.9
2023-05-09T04:45:33.116Z,46.0
2023-05-09T04:46:46.357Z,46.1
2023-05-09T04:47:58.786Z,46.0
2023-05-09T04:49:11.779Z,45.9
2023-05-09T04:50:14.151Z,45.7
2023-05-09T04:51:28.038Z,45.6
2023-05-09T04:52:40.211Z,45.4
2023-05-09T04:53:43.272Z,45.3
2023-05-09T04:54:55.747Z,44.5
2023-05-09T04:56:08.769Z,44.9
2023-05-09T04:57:20.856Z,45.0
2023-05-09T04:58:24.257Z,44.9
2023-05-09T04:59:36.415Z,44.9
2023-05-09T05:00:49.247Z,45.0
2023-05-09T05:01:51.518Z,44.0
2023-05-09T05:03:04.794Z,44.7
2023-05-09T05:04:17.231Z,45.0
2023-05-09T05:05:33.808Z,44.4
2023-05-09T05:06:39.943Z,45.0
2023-05-09T05:07:43.265Z,45.2
2023-05-09T05:08:55.423Z,45.0
2023-05-09T05:10:08.788Z,45.3
2023-05-09T05:11:11.245Z,45.3
2023-05-09T05:12:24.229Z,45.3
2023-05-09T05:13:36.416Z,45.4
2023-05-09T05:14:49.230Z,45.3
2023-05-09T05:15:51.529Z,45.2
2023-05-09T05:17:04.759Z,45.1
2023-05-09T05:18:16.981Z,45.0
2023-05-09T05:19:20.256Z,44.9
2023-05-09T05:20:32.420Z,44.8
2023-05-09T05:21:45.241Z,44.7
2023-05-09T05:22:47.446Z,44.6
2023-05-09T05:24:00.251Z,44.5
2023-05-09T05:25:12.548Z,44.4
2023-05-09T05:26:39.469Z,44.4
2023-05-09T05:27:31.908Z,44.3
2023-05-09T05:28:44.973Z,44.2
2023-05-09T05:29:47.196Z,44.1
2023-05-09T05:31:00.001Z,44.1
2023-05-09T05:32:12.080Z,44.0
2023-05-09T05:33:26.971Z,43.9
2023-05-09T05:34:29.195Z,43.9
2023-05-09T05:35:41.971Z,43.8
2023-05-09T05:36:54.105Z,43.8
2023-05-09T05:37:56.980Z,43.7
2023-05-09T05:39:09.134Z,43.7
2023-05-09T05:40:22.055Z,43.7
2023-05-09T05:41:34.180Z,43.6
2023-05-09T05:42:37.016Z,43.5
2023-05-09T05:43:49.132Z,43.5
2023-05-09T05:45:02.013Z,43.5
2023-05-09T05:46:24.143Z,43.4
2023-05-09T05:47:17.514Z,43.5
2023-05-09T05:48:30.246Z,43.4
2023-05-09T05:49:42.991Z,43.4
2023-05-09T05:50:45.293Z,43.3
2023-05-09T05:51:58.002Z,43.3
2023-05-09T05:53:10.120Z,43.2
2023-05-09T05:54:22.990Z,43.2
2023-05-09T05:55:25.251Z,43.2
2023-05-09T05:56:38.030Z,43.2
2023-05-09T05:57:50.091Z,43.1
2023-05-09T05:58:52.992Z,43.1
2023-05-09T06:00:05.148Z,43.1
2023-05-09T06:01:18.058Z,43.1
2023-05-09T06:02:30.344Z,43.1
2023-05-09T06:03:35.038Z,43.1
2023-05-09T06:04:47.250Z,43.0
2023-05-09T06:06:00.028Z,43.1
2023-05-09T06:07:02.343Z,43.0
2023-05-09T06:08:15.016Z,43.0
2023-05-09T06:09:27.062Z,43.0
2023-05-09T06:10:40.038Z,43.0
2023-05-09T06:11:42.234Z,43.0
2023-05-09T06:12:55.090Z,42.9
2023-05-09T06:14:07.325Z,42.9
2023-05-09T06:15:20.029Z,43.0
2023-05-09T06:16:22.233Z,42.9
2023-05-09T06:17:45.072Z,42.9
2023-05-09T06:18:47.429Z,42.9
2023-05-09T06:20:00.614Z,42.9
2023-05-09T06:21:02.882Z,42.9
2023-05-09T06:22:16.017Z,42.9
2023-05-09T06:23:28.108Z,42.9
2023-05-09T06:24:35.780Z,42.8
2023-05-09T06:25:48.663Z,42.8
2023-05-09T06:26:51.538Z,42.8
2023-05-09T06:28:03.632Z,42.8
2023-05-09T06:29:16.538Z,42.8
2023-05-09T06:31:37.062Z,42.8
2023-05-09T06:32:39.499Z,42.8
2023-05-09T06:33:53.060Z,42.8
2023-05-09T06:35:05.186Z,42.7
2023-05-09T06:36:18.008Z,42.7
2023-05-09T06:37:20.204Z,42.7
2023-05-09T06:38:33.002Z,42.7
2023-05-09T06:39:45.111Z,42.7
2023-05-09T06:40:48.043Z,42.7
2023-05-09T06:42:00.079Z,42.7
2023-05-09T06:43:13.048Z,42.7
2023-05-09T06:44:25.145Z,42.7
2023-05-09T06:45:28.076Z,42.7
2023-05-09T06:46:40.269Z,42.7
2023-05-09T06:47:53.053Z,42.6
2023-05-09T06:49:05.207Z,42.7
2023-05-09T06:50:08.066Z,42.6
2023-05-09T06:51:20.085Z,42.6
2023-05-09T06:52:33.549Z,42.6
2023-05-09T06:53:35.737Z,42.6
2023-05-09T06:54:48.543Z,42.6
2023-05-09T06:56:00.566Z,42.6
2023-05-09T06:57:13.516Z,42.5
2023-05-09T06:58:15.786Z,42.6
2023-05-09T06:59:28.557Z,42.6
2023-05-09T07:00:40.594Z,42.5
2023-05-09T07:01:53.562Z,42.6
2023-05-09T07:02:56.044Z,42.5
2023-05-09T07:04:09.045Z,42.5
2023-05-09T07:05:21.218Z,42.5
2023-05-09T07:06:24.538Z,42.4
2023-05-09T07:07:36.659Z,42.5
2023-05-09T07:08:49.520Z,42.5
2023-05-09T07:10:10.572Z,42.5
2023-05-09T07:11:06.373Z,42.4
2023-05-09T07:12:18.454Z,42.4
2023-05-09T07:13:31.564Z,42.4
2023-05-09T07:14:33.790Z,42.4
2023-05-09T07:15:46.550Z,42.4
2023-05-09T07:17:13.608Z,42.3
2023-05-09T07:18:12.099Z,42.4
2023-05-09T07:19:14.440Z,42.3
2023-05-09T07:20:27.513Z,42.3
2023-05-09T07:21:39.638Z,42.3
2023-05-09T07:22:42.568Z,42.3
2023-05-09T07:23:54.744Z,42.3
2023-05-09T07:25:08.029Z,42.3
2023-05-09T07:26:20.069Z,42.3
2023-05-09T07:27:23.056Z,42.2
2023-05-09T07:28:35.151Z,42.2
2023-05-09T07:29:48.042Z,42.2
2023-05-09T07:31:00.176Z,42.2
2023-05-09T07:32:03.069Z,42.1
2023-05-09T07:33:15.277Z,42.1
2023-05-09T07:34:28.031Z,42.1
2023-05-09T07:35:30.278Z,42.1
2023-05-09T07:36:43.073Z,42.1
2023-05-09T07:37:55.089Z,42.1
2023-05-09T07:39:08.069Z,42.0
2023-05-09T07:40:10.313Z,42.0
2023-05-09T07:41:23.025Z,42.0
2023-05-09T07:42:35.106Z,42.0
2023-05-09T07:43:48.044Z,41.9
2023-05-09T07:44:50.184Z,41.9
2023-05-09T07:46:03.072Z,41.9
2023-05-09T07:47:15.262Z,41.9
2023-05-09T07:48:28.046Z,41.8
2023-05-09T07:49:30.284Z,41.8
2023-05-09T07:50:43.032Z,41.8
2023-05-09T07:51:55.127Z,41.8
2023-05-09T07:53:08.117Z,41.7
2023-05-09T07:54:10.418Z,41.7
2023-05-09T07:55:23.029Z,41.7
2023-05-09T07:56:35.096Z,41.6
2023-05-09T07:57:38.057Z,41.6
2023-05-09T07:58:50.031Z,41.6
2023-05-09T08:00:03.038Z,41.6
2023-05-09T08:01:15.038Z,41.6
2023-05-09T08:02:18.132Z,41.5
2023-05-09T08:03:30.381Z,41.5
2023-05-09T08:04:43.597Z,41.5
2023-05-09T08:05:45.934Z,41.4
2023-05-09T08:06:58.548Z,41.4
2023-05-09T08:08:10.743Z,41.5
2023-05-09T08:09:23.540Z,41.4
2023-05-09T08:10:26.024Z,41.4
2023-05-09T08:11:39.052Z,41.4
2023-05-09T08:12:51.053Z,41.3
2023-05-09T08:14:04.046Z,41.3
2023-05-09T08:15:06.218Z,41.3
2023-05-09T08:16:19.087Z,41.3
2023-05-09T08:17:31.158Z,41.2
2023-05-09T08:18:44.063Z,41.2
2023-05-09T08:19:46.326Z,41.2
2023-05-09T08:20:59.068Z,41.2
2023-05-09T08:22:11.116Z,41.2
2023-05-09T08:23:16.043Z,41.1
2023-05-09T08:24:28.072Z,41.2
2023-05-09T08:25:41.059Z,41.1
2023-05-09T08:26:43.254Z,41.1
2023-05-09T08:27:56.046Z,41.1
2023-05-09T08:29:08.086Z,41.1
2023-05-09T08:30:21.069Z,41.0
2023-05-09T08:31:23.303Z,41.0
2023-05-09T08:32:36.084Z,41.0
2023-05-09T08:33:48.193Z,41.0
2023-05-09T08:35:01.085Z,41.0
2023-05-09T08:36:03.259Z,41.0
2023-05-09T08:37:16.061Z,40.9
2023-05-09T08:38:28.111Z,40.9
2023-05-09T08:39:41.093Z,40.9
2023-05-09T08:40:43.306Z,40.9
2023-05-09T08:41:56.052Z,40.8
2023-05-09T08:43:08.021Z,40.8
2023-05-09T08:44:11.110Z,40.8
2023-05-09T08:45:23.179Z,40.8
2023-05-09T08:46:36.075Z,40.7
2023-05-09T08:47:48.194Z,40.8
2023-05-09T08:48:51.043Z,40.7
2023-05-09T08:50:03.068Z,40.7
2023-05-09T08:51:16.070Z,40.7
2023-05-09T08:52:28.015Z,40.7
2023-05-09T08:53:31.084Z,40.7
2023-05-09T08:54:43.103Z,40.6
2023-05-09T08:55:56.124Z,40.6
2023-05-09T08:56:58.353Z,40.6
2023-05-09T08:58:11.036Z,40.6
2023-05-09T08:59:22.980Z,40.5
2023-05-09T09:00:35.571Z,40.5
2023-05-09T09:01:37.737Z,40.5
2023-05-09T09:02:50.658Z,40.5
2023-05-09T09:04:02.886Z,40.4
2023-05-09T09:05:28.693Z,40.5
2023-05-09T09:06:22.304Z,40.5
2023-05-09T09:07:34.304Z,40.4
2023-05-09T09:08:37.090Z,40.4
2023-05-09T09:09:49.105Z,40.3
2023-05-09T09:11:02.082Z,40.3
2023-05-09T09:12:14.129Z,40.3
2023-05-09T09:13:17.129Z,40.2
2023-05-09T09:14:29.269Z,40.2
2023-05-09T09:15:42.101Z,40.2
2023-05-09T09:16:54.261Z,40.2
2023-05-09T09:17:57.111Z,40.2
2023-05-09T09:19:09.216Z,40.1
2023-05-09T09:20:22.120Z,40.1
2023-05-09T09:21:34.142Z,40.1
2023-05-09T09:22:37.058Z,40.1
2023-05-09T09:23:49.064Z,40.1
2023-05-09T09:25:01.603Z,40.0
2023-05-09T09:26:03.704Z,40.0
2023-05-09T09:27:16.589Z,40.0
2023-05-09T09:28:28.618Z,40.0
2023-05-09T09:29:41.556Z,40.0
2023-05-09T09:30:43.734Z,40.0
2023-05-09T09:31:56.600Z,39.9
2023-05-09T09:33:08.618Z,39.9
2023-05-09T09:34:21.593Z,39.9
2023-05-09T09:35:23.767Z,39.9
2023-05-09T09:36:37.136Z,39.9
2023-05-09T09:37:49.090Z,39.8
2023-05-09T09:39:02.116Z,39.8
2023-05-09T09:40:04.274Z,39.8
2023-05-09T09:41:17.114Z,39.8
2023-05-09T09:42:29.143Z,39.7
2023-05-09T09:43:32.105Z,39.8
2023-05-09T09:44:44.102Z,39.8
2023-05-09T09:45:57.305Z,39.7
2023-05-09T09:47:09.479Z,39.7
2023-05-09T09:48:12.680Z,39.7
2023-05-09T09:49:24.751Z,39.7
2023-05-09T09:50:37.575Z,39.7
2023-05-09T09:51:39.638Z,39.6
2023-05-09T09:52:52.607Z,39.6
2023-05-09T09:54:04.584Z,39.6
2023-05-09T09:55:17.575Z,39.6
2023-05-09T09:56:19.734Z,39.6
2023-05-09T09:57:32.603Z,39.6
2023-05-09T09:58:44.598Z,39.5
2023-05-09T09:59:57.136Z,39.5
2023-05-09T10:00:59.323Z,39.5
2023-05-09T10:02:12.115Z,39.5
2023-05-09T10:03:24.201Z,39.5
2023-05-09T10:04:27.127Z,39.5
2023-05-09T10:05:39.047Z,39.5
2023-05-09T10:06:51.624Z,39.5
2023-05-09T10:08:03.630Z,39.5
2023-05-09T10:09:06.626Z,39.4
2023-05-09T10:10:18.577Z,39.4
2023-05-09T10:11:31.607Z,39.4
2023-05-09T10:12:43.618Z,39.4
2023-05-09T10:13:46.659Z,39.4
2023-05-09T10:15:18.337Z,39.4
2023-05-09T10:16:11.698Z,39.3
2023-05-09T10:17:23.824Z,39.4
2023-05-09T10:18:26.901Z,39.3
2023-05-09T10:19:39.154Z,39.4
2023-05-09T10:20:52.124Z,39.3
2023-05-09T10:21:54.194Z,39.3
2023-05-09T10:23:07.132Z,39.3
2023-05-09T10:24:19.108Z,39.3
2023-05-09T10:25:32.138Z,39.3
2023-05-09T10:26:34.276Z,39.2
2023-05-09T10:27:47.128Z,39.2
2023-05-09T10:28:59.093Z,39.2
2023-05-09T10:30:11.617Z,39.2
2023-05-09T10:31:13.795Z,39.2
2023-05-09T10:32:26.662Z,39.2
2023-05-09T10:33:38.769Z,39.2
2023-05-09T10:34:41.609Z,39.2
2023-05-09T10:35:53.558Z,39.1
2023-05-09T10:37:06.606Z,39.2
2023-05-09T10:38:18.511Z,39.1
2023-05-09T10:39:21.601Z,39.2
2023-05-09T10:40:33.561Z,39.2
2023-05-09T10:41:46.115Z,39.2
2023-05-09T10:42:58.202Z,39.2
2023-05-09T10:44:01.124Z,39.2
2023-05-09T10:45:13.517Z,39.1
2023-05-09T10:46:27.184Z,39.2
2023-05-09T10:47:29.542Z,39.2
2023-05-09T10:48:42.157Z,39.2
2023-05-09T10:49:54.286Z,39.2
2023-05-09T10:51:07.234Z,39.2
2023-05-09T10:52:09.372Z,39.2
2023-05-09T10:53:22.137Z,39.2
2023-05-09T10:54:34.123Z,39.2
2023-05-09T10:55:47.140Z,39.2
2023-05-09T10:56:49.206Z,39.2
2023-05-09T10:58:02.128Z,39.2
2023-05-09T10:59:14.030Z,39.2
2023-05-09T11:00:17.191Z,39.2
2023-05-09T11:01:29.316Z,39.3
2023-05-09T11:02:42.150Z,39.3
2023-05-09T11:03:54.207Z,39.3
2023-05-09T11:04:57.125Z,39.3
2023-05-09T11:06:09.098Z,39.2
2023-05-09T11:07:21.671Z,39.2
2023-05-09T11:08:23.845Z,39.1
2023-05-09T11:09:36.685Z,39.1
2023-05-09T11:10:48.684Z,39.1
2023-05-09T11:12:01.683Z,39.1
2023-05-09T11:13:03.884Z,39.1
2023-05-09T11:14:16.654Z,39.1
2023-05-09T11:15:28.563Z,39.1
2023-05-09T11:16:41.167Z,39.1
2023-05-09T11:17:43.374Z,39.1
2023-05-09T11:18:56.167Z,39.1
2023-05-09T11:20:08.154Z,39.1
2023-05-09T11:21:21.141Z,39.0
2023-05-09T11:22:23.272Z,39.0
2023-05-09T11:23:36.360Z,39.1
2023-05-09T11:24:48.351Z,39.0
2023-05-09T11:25:51.284Z,39.0
2023-05-09T11:27:03.362Z,39.0
2023-05-09T11:28:16.134Z,39.0
2023-05-09T11:29:47.744Z,39.0
2023-05-09T11:30:31.139Z,39.0
2023-05-09T11:31:43.105Z,39.0
2023-05-09T11:32:56.318Z,39.0
2023-05-09T11:33:58.637Z,39.0
2023-05-09T11:35:11.771Z,39.0
2023-05-09T11:36:23.875Z,39.0
2023-05-09T11:37:36.670Z,39.0
2023-05-09T11:38:38.819Z,39.0
2023-05-09T11:39:51.634Z,39.0
2023-05-09T11:41:03.602Z,39.0
2023-05-09T11:42:16.173Z,39.0
2023-05-09T11:43:18.428Z,39.0
2023-05-09T11:44:31.164Z,39.0
2023-05-09T11:45:43.230Z,39.0
2023-05-09T11:46:56.133Z,39.0
2023-05-09T11:47:58.340Z,39.1
2023-05-09T11:49:12.117Z,39.1
2023-05-09T11:50:24.370Z,39.1
2023-05-09T11:51:27.641Z,39.1
2023-05-09T11:52:39.614Z,39.1
2023-05-09T11:53:52.159Z,39.1
2023-05-09T11:55:04.136Z,39.1
2023-05-09T11:56:07.168Z,39.1
2023-05-09T11:57:19.098Z,39.2
2023-05-09T11:58:31.680Z,39.1
2023-05-09T11:59:33.829Z,39.1
2023-05-09T12:00:46.634Z,39.2
2023-05-09T12:01:58.638Z,39.1
2023-05-09T12:03:11.753Z,39.1
2023-05-09T12:04:14.045Z,39.1
2023-05-09T12:05:26.660Z,39.2
2023-05-09T12:06:38.666Z,39.2
2023-05-09T12:07:51.654Z,39.2
2023-05-09T12:08:53.727Z,39.2
2023-05-09T12:10:06.655Z,39.2
2023-05-09T12:11:18.655Z,39.2
2023-05-09T12:12:31.666Z,39.2
2023-05-09T12:13:33.851Z,39.2
2023-05-09T12:14:46.677Z,39.2
2023-05-09T12:15:58.709Z,39.2
2023-05-09T12:17:01.676Z,39.2
2023-05-09T12:18:13.784Z,39.2
2023-05-09T12:19:26.657Z,39.2
2023-05-09T12:20:38.647Z,39.2
2023-05-09T12:21:41.698Z,39.2
2023-05-09T12:22:53.735Z,39.2
2023-05-09T12:24:06.678Z,39.2
2023-05-09T12:25:18.816Z,39.2
2023-05-09T12:26:22.163Z,39.2
2023-05-09T12:27:34.281Z,39.2
2023-05-09T12:28:47.168Z,39.2
2023-05-09T12:29:49.223Z,39.3
2023-05-09T12:31:02.197Z,39.2
2023-05-09T12:32:14.096Z,39.2
2023-05-09T12:33:26.676Z,39.2
2023-05-09T12:34:28.759Z,39.2
2023-05-09T12:35:41.660Z,39.2
2023-05-09T12:36:53.717Z,39.2
2023-05-09T12:38:06.676Z,39.2
2023-05-09T12:39:08.936Z,39.2
2023-05-09T12:40:21.786Z,39.2
2023-05-09T12:41:39.461Z,39.2
2023-05-09T12:42:40.171Z,39.2
2023-05-09T12:43:52.136Z,39.2
2023-05-09T12:45:06.175Z,39.2
2023-05-09T12:46:08.436Z,39.2
2023-05-09T12:47:21.361Z,39.2
2023-05-09T12:48:33.314Z,39.2
2023-05-09T12:49:36.192Z,39.2
2023-05-09T12:50:48.164Z,39.2
2023-05-09T12:52:03.798Z,39.2
2023-05-09T12:53:06.957Z,39.2
2023-05-09T12:54:19.686Z,39.2
2023-05-09T12:55:31.612Z,39.2
2023-05-09T12:56:34.682Z,39.3
2023-05-09T12:57:46.584Z,39.3
2023-05-09T12:58:59.195Z,39.3
2023-05-09T13:00:11.311Z,39.2
2023-05-09T13:01:14.261Z,39.3
2023-05-09T13:02:26.463Z,39.2
2023-05-09T13:03:39.212Z,39.3
2023-05-09T13:04:41.282Z,39.3
2023-05-09T13:05:54.186Z,39.3
2023-05-09T13:07:06.302Z,39.3
2023-05-09T13:08:19.185Z,39.3
2023-05-09T13:09:21.329Z,39.3
2023-05-09T13:10:34.185Z,39.3
2023-05-09T13:11:46.156Z,39.3
2023-05-09T13:12:59.311Z,39.3
2023-05-09T13:14:01.583Z,39.3
2023-05-09T13:15:14.641Z,39.3
2023-05-09T13:16:26.958Z,39.4
2023-05-09T13:17:30.207Z,39.4
2023-05-09T13:18:42.232Z,39.3
2023-05-09T13:19:55.204Z,39.4
2023-05-09T13:20:57.349Z,39.4
2023-05-09T13:22:12.245Z,39.3
2023-05-09T13:23:24.449Z,39.4
2023-05-09T13:24:27.188Z,39.4
2023-05-09T13:25:39.166Z,39.4
2023-05-09T13:26:52.208Z,39.4
2023-05-09T13:28:04.720Z,39.4
2023-05-09T13:30:36.087Z,39.3
2023-05-09T13:31:28.598Z,39.4
2023-05-09T13:32:41.213Z,39.4
2023-05-09T13:33:54.682Z,39.4
2023-05-09T13:34:57.668Z,39.4
2023-05-09T13:36:09.573Z,39.4
2023-05-09T13:37:22.142Z,39.4
2023-05-09T13:38:24.288Z,39.4
2023-05-09T13:39:37.241Z,39.4
2023-05-09T13:40:49.300Z,39.5
2023-05-09T13:42:02.182Z,39.5
2023-05-09T13:43:04.334Z,39.5
2023-05-09T13:44:17.178Z,39.5
2023-05-09T13:45:29.170Z,39.5
2023-05-09T13:46:32.498Z,39.6
2023-05-09T13:47:44.602Z,39.6
2023-05-09T13:48:57.683Z,39.6
2023-05-09T13:50:09.676Z,39.6
2023-05-09T13:51:12.714Z,39.6
2023-05-09T13:52:24.713Z,39.6
2023-05-09T13:53:39.155Z,39.6
2023-05-09T13:54:41.499Z,39.6
2023-05-09T13:55:54.195Z,39.6
2023-05-09T13:57:06.209Z,39.6
2023-05-09T13:58:19.170Z,39.6
2023-05-09T13:59:21.333Z,39.7
2023-05-09T14:00:34.170Z,39.7
2023-05-09T14:01:46.143Z,39.7
2023-05-09T14:02:49.249Z,39.7
2023-05-09T14:04:01.370Z,39.8
2023-05-09T14:05:14.204Z,39.8
2023-05-09T14:06:26.156Z,39.8
2023-05-09T14:07:29.199Z,39.8
2023-05-09T14:08:41.133Z,39.8
2023-05-09T14:09:58.822Z,39.8
2023-05-09T14:11:03.828Z,39.9
2023-05-09T14:12:06.670Z,39.9
2023-05-09T14:13:18.752Z,39.9
2023-05-09T14:14:31.694Z,39.9
2023-05-09T14:15:43.733Z,39.8
2023-05-09T14:16:48.193Z,39.9
2023-05-09T14:18:00.245Z,39.9
2023-05-09T14:19:13.208Z,39.9
2023-05-09T14:20:15.455Z,39.9
2023-05-09T14:21:28.678Z,40.0
2023-05-09T14:22:40.691Z,40.0
2023-05-09T14:23:43.716Z,40.0
2023-05-09T14:24:55.676Z,40.0
2023-05-09T14:26:08.174Z,40.0
2023-05-09T14:27:20.146Z,40.1
2023-05-09T14:28:23.197Z,40.0
2023-05-09T14:29:35.139Z,40.1
2023-05-09T14:30:48.225Z,40.0
2023-05-09T14:32:00.315Z,40.1
2023-05-09T14:33:03.228Z,40.1
2023-05-09T14:34:15.328Z,40.1
2023-05-09T14:35:28.230Z,40.1
2023-05-09T14:36:30.460Z,40.1
2023-05-09T14:37:43.215Z,40.1
2023-05-09T14:38:55.243Z,40.1
2023-05-09T14:40:08.275Z,40.2
2023-05-09T14:41:10.526Z,40.2
2023-05-09T14:42:23.172Z,40.2
2023-05-09T14:43:35.220Z,40.3
2023-05-09T14:44:48.184Z,40.4
2023-05-09T14:45:50.431Z,40.5
2023-05-09T14:47:03.278Z,40.7
2023-05-09T14:48:16.281Z,40.8
2023-05-09T14:49:19.194Z,40.9
2023-05-09T14:50:31.128Z,40.9
2023-05-09T14:51:44.209Z,41.0
2023-05-09T14:52:56.266Z,41.0
2023-05-09T14:53:59.212Z,41.0
2023-05-09T14:55:11.240Z,41.1
2023-05-09T14:56:24.198Z,41.1
2023-05-09T14:57:36.415Z,41.2
2023-05-09T14:58:39.675Z,41.2
2023-05-09T14:59:51.620Z,41.2
2023-05-09T15:01:04.292Z,41.3
2023-05-09T15:02:06.579Z,41.3
2023-05-09T15:03:19.193Z,41.3
2023-05-09T15:04:31.642Z,41.4
2023-05-09T15:05:44.704Z,41.3
2023-05-09T15:06:46.797Z,41.5
2023-05-09T15:08:01.792Z,41.4
2023-05-09T15:09:13.870Z,41.4
2023-05-09T15:10:17.039Z,41.5
2023-05-09T15:11:33.466Z,41.5
2023-05-09T15:12:36.728Z,41.6
2023-05-09T15:13:48.774Z,41.6
2023-05-09T15:15:01.722Z,41.6
2023-05-09T15:16:04.015Z,41.7
2023-05-09T15:17:16.706Z,41.7
2023-05-09T15:18:28.560Z,41.6
2023-05-09T15:19:41.245Z,41.7
2023-05-09T15:20:43.363Z,41.7
2023-05-09T15:21:56.178Z,41.8
2023-05-09T15:23:08.275Z,41.7
2023-05-09T15:24:21.215Z,41.7
2023-05-09T15:25:23.395Z,41.8
2023-05-09T15:26:36.196Z,41.8
2023-05-09T15:27:48.210Z,41.8
2023-05-09T15:29:01.206Z,41.9
2023-05-09T15:30:03.412Z,42.0
2023-05-09T15:31:16.278Z,42.0